Time;durP1;ratioP1;P1;durP2;ratioP2;P2;SDS_P1;SDS_P2;PMS_P1;PMS_P2;Temp;Humidity;BMP_temperature;BMP_pressure;BME280_temperature;BME280_humidity;BME280_pressure;Samples;Min_cycle;Max_cycle;Signal;HPM_P1;HPM_P2
2022/03/06 00:01:28;;;;;;;15.88;9.07;;;2.70;76.10;;;;;;4922370;29;20174;-67
2022/03/06 00:03:54;;;;;;;11.45;8.07;;;2.80;75.80;;;;;;4913660;29;20099;-68
2022/03/06 00:06:20;;;;;;;14.93;9.35;;;2.80;75.80;;;;;;4900720;29;20067;-68
2022/03/06 00:08:46;;;;;;;14.05;10.98;;;2.80;75.70;;;;;;4916542;29;20039;-67
2022/03/06 00:11:12;;;;;;;12.90;9.48;;;2.90;75.60;;;;;;4931326;29;20058;-67
2022/03/06 00:13:38;;;;;;;14.88;8.60;;;2.90;75.60;;;;;;4931289;29;20075;-67
2022/03/06 00:16:04;;;;;;;13.15;7.65;;;2.80;75.60;;;;;;4921330;29;20075;-67
2022/03/06 00:18:30;;;;;;;12.73;8.60;;;2.80;75.70;;;;;;4915086;29;20044;-67
2022/03/06 00:20:58;;;;;;;15.65;9.10;;;2.80;75.70;;;;;;4932743;29;20047;-67
2022/03/06 00:23:24;;;;;;;13.90;9.02;;;2.90;75.60;;;;;;4931198;29;20054;-67
2022/03/06 00:25:50;;;;;;;12.40;8.90;;;2.90;75.60;;;;;;4914688;29;20048;-68
2022/03/06 00:28:16;;;;;;;8.82;7.35;;;2.90;75.50;;;;;;4913636;29;20071;-67
2022/03/06 00:30:42;;;;;;;9.55;7.25;;;2.90;75.30;;;;;;4932417;29;20054;-67
2022/03/06 00:33:07;;;;;;;13.52;7.88;;;2.90;75.20;;;;;;4914999;29;20131;-68
2022/03/06 00:35:33;;;;;;;12.48;8.15;;;3.00;75.00;;;;;;4913124;29;20122;-68
2022/03/06 00:37:59;;;;;;;12.05;7.07;;;3.00;74.90;;;;;;4912785;29;20043;-68
2022/03/06 00:40:25;;;;;;;12.10;7.97;;;3.00;74.80;;;;;;4915829;29;20074;-68
2022/03/06 00:42:51;;;;;;;9.57;7.82;;;3.00;74.60;;;;;;4913524;29;20108;-68
2022/03/06 00:45:17;;;;;;;13.23;7.72;;;3.00;74.70;;;;;;4924244;29;20051;-67
2022/03/06 00:47:43;;;;;;;10.98;7.47;;;3.00;74.70;;;;;;4932629;29;20043;-68
2022/03/06 00:50:09;;;;;;;8.88;6.80;;;3.00;74.60;;;;;;4917629;29;20529;-69
2022/03/06 00:52:34;;;;;;;11.63;7.40;;;3.00;74.60;;;;;;4896841;29;20111;-69
2022/03/06 00:55:00;;;;;;;9.15;6.75;;;3.10;74.70;;;;;;4912842;29;20502;-67
2022/03/06 00:57:25;;;;;;;13.52;7.85;;;3.10;74.70;;;;;;4914538;29;20048;-67
2022/03/06 00:59:51;;;;;;;9.00;7.38;;;3.10;74.70;;;;;;4907262;29;20462;-67
2022/03/06 01:02:16;;;;;;;10.63;7.78;;;3.10;74.60;;;;;;4916294;29;20040;-67
2022/03/06 01:04:42;;;;;;;10.77;7.20;;;3.10;74.60;;;;;;4929415;29;20047;-68
2022/03/06 01:07:08;;;;;;;12.35;8.07;;;3.20;74.50;;;;;;4932310;29;20047;-67
2022/03/06 01:09:34;;;;;;;12.52;7.43;;;3.20;74.30;;;;;;4925899;29;20043;-68
2022/03/06 01:11:59;;;;;;;11.10;8.15;;;3.20;74.30;;;;;;4932388;29;20110;-68
2022/03/06 01:14:25;;;;;;;13.98;7.78;;;3.20;74.10;;;;;;4923783;29;20040;-68
2022/03/06 01:16:50;;;;;;;14.90;8.52;;;3.20;74.10;;;;;;4913229;29;20040;-69
2022/03/06 01:19:16;;;;;;;14.75;8.18;;;3.20;74.00;;;;;;4920030;29;20043;-68
2022/03/06 01:21:42;;;;;;;10.80;7.15;;;3.20;74.00;;;;;;4931955;29;20047;-68
2022/03/06 01:24:08;;;;;;;12.02;7.90;;;3.20;74.00;;;;;;4932478;29;20130;-69
2022/03/06 01:26:33;;;;;;;9.05;6.90;;;3.20;73.90;;;;;;4932212;29;20039;-68
2022/03/06 01:28:59;;;;;;;11.57;7.82;;;3.20;73.80;;;;;;4920713;29;20249;-68
2022/03/06 01:31:25;;;;;;;12.13;7.80;;;3.20;73.80;;;;;;4935693;29;20377;-67
2022/03/06 01:33:50;;;;;;;11.50;7.93;;;3.20;73.70;;;;;;4930411;29;20134;-67
2022/03/06 01:36:16;;;;;;;12.63;7.75;;;3.20;73.70;;;;;;4935784;29;20416;-68
2022/03/06 01:38:41;;;;;;;17.70;7.97;;;3.20;73.80;;;;;;4930364;29;20060;-67
2022/03/06 01:41:07;;;;;;;10.48;7.22;;;3.20;73.90;;;;;;4916801;29;20044;-68
2022/03/06 01:43:33;;;;;;;11.05;7.43;;;3.20;74.00;;;;;;4916933;29;20036;-68
2022/03/06 01:45:59;;;;;;;13.18;8.68;;;3.10;74.10;;;;;;4935137;29;20145;-69
2022/03/06 01:48:24;;;;;;;11.73;8.43;;;3.10;74.20;;;;;;4935570;29;20074;-68
2022/03/06 01:50:50;;;;;;;11.00;7.78;;;3.10;74.20;;;;;;4899797;29;20481;-68
2022/03/06 01:53:16;;;;;;;11.70;8.43;;;3.10;74.30;;;;;;4916125;29;20048;-68
2022/03/06 01:55:43;;;;;;;13.10;8.93;;;3.10;74.30;;;;;;4930668;29;20063;-67
2022/03/06 01:58:10;;;;;;;14.23;8.45;;;3.10;74.30;;;;;;4898228;29;20078;-68
2022/03/06 02:00:40;;;;;;;15.50;7.40;;;3.10;74.30;;;;;;4914488;29;20051;-68
2022/03/06 02:03:06;;;;;;;12.35;7.38;;;3.20;74.30;;;;;;4934864;29;20066;-68
2022/03/06 02:05:32;;;;;;;11.70;8.57;;;3.20;74.20;;;;;;4931989;29;20042;-68
2022/03/06 02:07:59;;;;;;;12.82;8.02;;;3.10;74.20;;;;;;4915626;29;20044;-68
2022/03/06 02:10:24;;;;;;;12.65;6.97;;;3.10;74.30;;;;;;4928859;29;20126;-68
2022/03/06 02:12:50;;;;;;;13.77;7.63;;;3.20;74.30;;;;;;4922443;29;20135;-69
2022/03/06 02:15:17;;;;;;;11.40;7.40;;;3.20;74.40;;;;;;4934253;29;20047;-69
2022/03/06 02:17:44;;;;;;;12.13;6.80;;;3.20;74.40;;;;;;4927116;29;20520;-68
2022/03/06 02:20:11;;;;;;;12.23;7.75;;;3.20;74.40;;;;;;4910515;29;20052;-67
2022/03/06 02:22:39;;;;;;;12.52;7.78;;;3.20;74.40;;;;;;4917223;29;20053;-68
2022/03/06 02:25:11;;;;;;;12.95;7.65;;;3.20;74.40;;;;;;4921863;29;20112;-68
2022/03/06 02:27:37;;;;;;;13.30;7.20;;;3.30;74.40;;;;;;4915096;29;20044;-68
2022/03/06 02:30:05;;;;;;;11.15;6.80;;;3.30;74.30;;;;;;4925538;29;20043;-68
2022/03/06 02:32:32;;;;;;;12.63;7.28;;;3.30;74.20;;;;;;4934138;29;20123;-68
2022/03/06 02:34:57;;;;;;;13.45;6.43;;;3.30;74.10;;;;;;4933558;29;20051;-67
2022/03/06 02:37:26;;;;;;;9.88;6.80;;;3.20;74.10;;;;;;4916935;29;20051;-67
2022/03/06 02:39:52;;;;;;;9.50;6.03;;;3.30;74.20;;;;;;4907289;29;20046;-67
2022/03/06 02:42:29;;;;;;;10.35;7.20;;;3.30;74.20;;;;;;4934138;29;20043;-68
2022/03/06 02:44:56;;;;;;;11.55;6.40;;;3.30;74.10;;;;;;4924227;29;21010;-67
2022/03/06 02:47:21;;;;;;;15.00;6.75;;;3.30;73.90;;;;;;4926903;29;20044;-68
2022/03/06 02:49:47;;;;;;;13.77;6.90;;;3.30;73.80;;;;;;4916834;29;20473;-68
2022/03/06 02:52:13;;;;;;;11.63;6.70;;;3.30;73.80;;;;;;4932659;29;20083;-67
2022/03/06 02:54:39;;;;;;;8.40;6.47;;;3.30;73.90;;;;;;4915944;29;20051;-67
2022/03/06 02:57:06;;;;;;;9.65;6.15;;;3.30;73.90;;;;;;4930203;29;20469;-68
2022/03/06 02:59:32;;;;;;;12.43;6.45;;;3.30;73.90;;;;;;4928372;29;20060;-68
2022/03/06 03:01:57;;;;;;;8.80;5.95;;;3.30;73.90;;;;;;4915662;29;20045;-67
2022/03/06 03:04:23;;;;;;;10.93;6.03;;;3.30;74.00;;;;;;4897789;29;20122;-68
2022/03/06 03:06:50;;;;;;;12.82;5.82;;;3.30;73.90;;;;;;4917930;29;20493;-67
2022/03/06 03:09:19;;;;;;;11.73;5.22;;;3.30;73.90;;;;;;4914294;29;20100;-67
2022/03/06 03:11:50;;;;;;;8.98;5.43;;;3.30;73.90;;;;;;4914147;29;20048;-67
2022/03/06 03:14:16;;;;;;;10.30;6.50;;;3.30;73.90;;;;;;4914661;29;20050;-67
2022/03/06 03:16:42;;;;;;;8.85;5.63;;;3.30;74.10;;;;;;4923094;29;20287;-67
2022/03/06 03:19:08;;;;;;;7.40;4.57;;;3.40;74.20;;;;;;4932546;29;20052;-67
2022/03/06 03:21:33;;;;;;;11.75;5.45;;;3.30;74.20;;;;;;4928500;29;20043;-67
2022/03/06 03:23:59;;;;;;;8.25;4.72;;;3.30;74.30;;;;;;4932874;29;20051;-69
2022/03/06 03:26:25;;;;;;;11.50;6.53;;;3.30;74.30;;;;;;4926634;29;20067;-68
2022/03/06 03:28:51;;;;;;;9.85;5.57;;;3.30;74.30;;;;;;4913426;29;20502;-67
2022/03/06 03:31:17;;;;;;;9.23;4.40;;;3.30;74.30;;;;;;4924627;29;20050;-67
2022/03/06 03:33:42;;;;;;;8.65;4.35;;;3.30;74.40;;;;;;4932544;29;20047;-67
2022/03/06 03:36:08;;;;;;;7.50;4.57;;;3.20;74.50;;;;;;4929015;29;20466;-67
2022/03/06 03:38:34;;;;;;;7.75;4.45;;;3.30;74.60;;;;;;4914130;29;20063;-68
2022/03/06 03:41:01;;;;;;;9.65;6.07;;;3.30;74.60;;;;;;4916319;29;20052;-68
2022/03/06 03:43:27;;;;;;;9.15;4.43;;;3.20;74.60;;;;;;4932494;29;20579;-67
2022/03/06 03:45:53;;;;;;;8.50;4.82;;;3.30;74.80;;;;;;4930381;29;20059;-68
2022/03/06 03:48:19;;;;;;;13.27;5.03;;;3.20;74.80;;;;;;4913147;29;20055;-68
2022/03/06 03:50:44;;;;;;;7.20;4.15;;;3.30;75.00;;;;;;4923435;29;20055;-67
2022/03/06 03:53:10;;;;;;;9.82;4.55;;;3.20;75.10;;;;;;4932279;29;20394;-68
2022/03/06 03:55:35;;;;;;;11.93;5.07;;;3.30;75.00;;;;;;4924382;29;20525;-68
2022/03/06 03:58:01;;;;;;;8.50;4.53;;;3.20;75.00;;;;;;4931755;29;20059;-68
2022/03/06 04:00:27;;;;;;;8.57;4.18;;;3.30;75.10;;;;;;4928734;29;20123;-68
2022/03/06 04:02:53;;;;;;;6.47;4.25;;;3.30;75.10;;;;;;4913442;29;20135;-68
2022/03/06 04:05:18;;;;;;;8.52;3.92;;;3.20;75.20;;;;;;4896513;29;20428;-68
2022/03/06 04:07:44;;;;;;;7.18;4.07;;;3.30;75.40;;;;;;4928812;29;20059;-68
2022/03/06 04:10:11;;;;;;;8.35;4.57;;;3.30;75.30;;;;;;4931979;29;20518;-68
2022/03/06 04:12:36;;;;;;;7.75;4.05;;;3.30;75.40;;;;;;4931939;29;20127;-69
2022/03/06 04:15:02;;;;;;;11.90;4.60;;;3.40;75.40;;;;;;4929818;29;20083;-68
2022/03/06 04:17:28;;;;;;;10.65;5.07;;;3.30;75.40;;;;;;4926176;29;20074;-69
2022/03/06 04:19:54;;;;;;;8.43;4.13;;;3.40;75.40;;;;;;4931924;29;20559;-68
2022/03/06 04:22:19;;;;;;;7.07;4.57;;;3.40;75.40;;;;;;4919798;29;20046;-68
2022/03/06 04:24:45;;;;;;;8.60;4.18;;;3.40;75.50;;;;;;4928514;29;20390;-68
2022/03/06 04:27:10;;;;;;;12.38;4.90;;;3.40;75.50;;;;;;4931521;29;20397;-68
2022/03/06 04:29:36;;;;;;;9.38;3.90;;;3.40;75.40;;;;;;4932160;29;20091;-68
2022/03/06 04:32:03;;;;;;;7.53;4.03;;;3.40;75.40;;;;;;4932067;29;20052;-68
2022/03/06 04:34:28;;;;;;;9.88;4.30;;;3.40;75.50;;;;;;4918403;29;20052;-68
2022/03/06 04:36:54;;;;;;;8.05;3.97;;;3.40;75.40;;;;;;4921474;29;20050;-68
2022/03/06 04:39:19;;;;;;;8.68;4.95;;;3.40;75.40;;;;;;4932654;29;20047;-66
2022/03/06 04:41:45;;;;;;;9.20;4.85;;;3.40;75.50;;;;;;4931397;29;20408;-68
2022/03/06 04:44:12;;;;;;;7.95;4.70;;;3.40;75.50;;;;;;4931884;29;20040;-67
2022/03/06 04:46:38;;;;;;;8.45;5.03;;;3.40;75.70;;;;;;4907770;29;20059;-67
2022/03/06 04:49:04;;;;;;;10.00;5.35;;;3.40;75.70;;;;;;4924249;29;20040;-67
2022/03/06 04:51:29;;;;;;;11.50;4.82;;;3.40;75.70;;;;;;4913123;29;20051;-68
2022/03/06 04:53:55;;;;;;;9.25;5.03;;;3.40;75.80;;;;;;4912016;29;20055;-67
2022/03/06 04:56:20;;;;;;;8.05;4.70;;;3.40;76.00;;;;;;4895999;29;20135;-67
2022/03/06 04:58:46;;;;;;;13.18;5.22;;;3.40;75.90;;;;;;4912719;29;20087;-68
2022/03/06 05:01:12;;;;;;;8.18;4.05;;;3.40;76.00;;;;;;4933511;29;20047;-68
2022/03/06 05:03:38;;;;;;;11.85;5.25;;;3.40;76.10;;;;;;4929305;29;20082;-69
2022/03/06 05:06:03;;;;;;;10.75;4.40;;;3.40;76.20;;;;;;4926980;29;20472;-69
2022/03/06 05:08:29;;;;;;;8.00;4.55;;;3.40;76.00;;;;;;4930245;29;20051;-68
2022/03/06 05:10:55;;;;;;;7.95;4.43;;;3.40;76.10;;;;;;4935910;29;20047;-67
2022/03/06 05:13:22;;;;;;;7.63;4.07;;;3.40;76.10;;;;;;4918882;29;20040;-68
2022/03/06 05:15:48;;;;;;;10.15;4.40;;;3.40;76.10;;;;;;4918882;29;20054;-67
2022/03/06 05:18:14;;;;;;;7.28;4.53;;;3.30;76.20;;;;;;4935578;29;20130;-67
2022/03/06 05:20:39;;;;;;;7.10;4.07;;;3.40;76.20;;;;;;4936023;29;20036;-67
2022/03/06 05:23:05;;;;;;;11.25;4.60;;;3.40;76.20;;;;;;4936022;29;20127;-67
2022/03/06 05:25:31;;;;;;;15.77;5.25;;;3.40;76.20;;;;;;4935672;29;20047;-68
2022/03/06 05:27:57;;;;;;;7.35;4.15;;;3.40;76.10;;;;;;4935143;29;20048;-67
2022/03/06 05:30:22;;;;;;;8.15;4.40;;;3.40;76.10;;;;;;4917367;29;20144;-68
2022/03/06 05:32:48;;;;;;;12.60;4.45;;;3.30;76.00;;;;;;4916194;29;20572;-67
2022/03/06 05:35:13;;;;;;;5.78;3.92;;;3.40;76.00;;;;;;4916853;29;20071;-66
2022/03/06 05:37:39;;;;;;;10.10;4.10;;;3.40;76.20;;;;;;4916613;29;20072;-66
2022/03/06 05:40:06;;;;;;;7.55;3.95;;;3.30;76.10;;;;;;4916673;29;20040;-66
2022/03/06 05:42:32;;;;;;;7.82;5.22;;;3.40;76.10;;;;;;4916327;29;20052;-66
2022/03/06 05:44:58;;;;;;;7.07;3.58;;;3.30;75.90;;;;;;4916483;29;20036;-67
2022/03/06 05:47:24;;;;;;;8.80;3.60;;;3.40;75.90;;;;;;4935023;29;20576;-67
2022/03/06 05:49:49;;;;;;;12.00;4.35;;;3.40;75.60;;;;;;4935348;29;20413;-67
2022/03/06 05:52:16;;;;;;;7.53;4.13;;;3.40;75.40;;;;;;4935311;29;20080;-66
2022/03/06 05:54:43;;;;;;;8.18;3.47;;;3.40;75.30;;;;;;4934568;29;20060;-67
2022/03/06 05:57:08;;;;;;;9.40;3.65;;;3.30;75.40;;;;;;4918117;29;20488;-67
2022/03/06 05:59:34;;;;;;;6.85;3.42;;;3.40;75.40;;;;;;4935194;29;20079;-67
2022/03/06 06:02:00;;;;;;;5.93;3.35;;;3.30;75.40;;;;;;4918011;29;20135;-67
2022/03/06 06:04:25;;;;;;;8.68;3.90;;;3.40;75.30;;;;;;4934184;29;20127;-67
2022/03/06 06:06:51;;;;;;;5.35;2.67;;;3.30;75.20;;;;;;4934535;29;20044;-67
2022/03/06 06:09:17;;;;;;;8.57;3.30;;;3.30;75.10;;;;;;4934774;29;20051;-67
2022/03/06 06:11:42;;;;;;;8.18;3.80;;;3.40;74.90;;;;;;4934580;29;20048;-67
2022/03/06 06:14:08;;;;;;;5.03;2.30;;;3.40;74.70;;;;;;4935343;29;20480;-67
2022/03/06 06:16:34;;;;;;;4.05;2.05;;;3.40;74.40;;;;;;4935109;29;20507;-67
2022/03/06 06:18:59;;;;;;;5.03;1.75;;;3.40;74.00;;;;;;4912893;29;20039;-67
2022/03/06 06:21:26;;;;;;;5.82;2.03;;;3.30;73.60;;;;;;4906182;29;20052;-68
2022/03/06 06:23:51;;;;;;;4.10;2.22;;;3.40;73.00;;;;;;4915475;29;20044;-67
2022/03/06 06:26:18;;;;;;;6.13;1.90;;;3.30;72.60;;;;;;4933445;29;20098;-67
2022/03/06 06:28:43;;;;;;;4.57;1.55;;;3.30;72.50;;;;;;4934058;29;20047;-67
2022/03/06 06:31:09;;;;;;;4.95;1.65;;;3.30;72.30;;;;;;4934805;29;20051;-67
2022/03/06 06:33:35;;;;;;;5.00;1.70;;;3.40;71.70;;;;;;4934591;29;20048;-67
2022/03/06 06:36:02;;;;;;;6.32;2.67;;;3.40;71.20;;;;;;4934477;29;20052;-68
2022/03/06 06:38:28;;;;;;;4.80;1.20;;;3.40;70.50;;;;;;4916819;29;20056;-68
2022/03/06 06:40:54;;;;;;;3.70;1.40;;;3.40;70.70;;;;;;4915030;29;20044;-68
2022/03/06 06:43:20;;;;;;;4.72;1.40;;;3.40;70.50;;;;;;4915749;29;20485;-68
2022/03/06 06:45:47;;;;;;;3.35;1.17;;;3.40;70.40;;;;;;4915788;29;20119;-68
2022/03/06 06:48:13;;;;;;;4.25;1.50;;;3.40;70.50;;;;;;4915859;29;20048;-67
2022/03/06 06:50:38;;;;;;;4.88;1.25;;;3.40;69.90;;;;;;4915567;29;20043;-68
2022/03/06 06:53:04;;;;;;;2.17;1.25;;;3.40;69.80;;;;;;4915520;29;20044;-68
2022/03/06 06:55:30;;;;;;;4.40;1.65;;;3.50;69.40;;;;;;4915072;29;20059;-68
2022/03/06 06:57:56;;;;;;;6.72;1.77;;;3.50;68.90;;;;;;4915278;29;20055;-68
2022/03/06 07:00:21;;;;;;;4.20;1.17;;;3.40;68.80;;;;;;4915526;29;20044;-67
2022/03/06 07:02:47;;;;;;;2.83;1.13;;;3.40;68.80;;;;;;4907821;29;20043;-68
2022/03/06 07:05:13;;;;;;;5.55;1.30;;;3.40;68.90;;;;;;4894815;29;20343;-68
2022/03/06 07:07:39;;;;;;;3.35;1.15;;;3.50;68.90;;;;;;4919366;29;20054;-69
2022/03/06 07:10:05;;;;;;;2.83;1.17;;;3.50;69.00;;;;;;4917888;29;20051;-68
2022/03/06 07:12:31;;;;;;;3.05;1.10;;;3.50;68.90;;;;;;4902067;29;20078;-68
2022/03/06 07:14:57;;;;;;;5.15;1.23;;;3.40;69.20;;;;;;4917293;29;20040;-69
2022/03/06 07:17:22;;;;;;;2.42;1.05;;;3.50;69.20;;;;;;4934864;29;20043;-68
2022/03/06 07:19:48;;;;;;;2.45;1.08;;;3.50;68.80;;;;;;4933431;29;20079;-69
2022/03/06 07:22:15;;;;;;;4.38;1.15;;;3.50;67.90;;;;;;4902806;29;20457;-69
2022/03/06 07:24:41;;;;;;;4.55;1.10;;;3.40;67.60;;;;;;4935250;29;20055;-69
2022/03/06 07:27:06;;;;;;;3.47;1.52;;;3.40;67.50;;;;;;4934429;29;20401;-69
2022/03/06 07:29:32;;;;;;;1.45;0.77;;;3.40;67.60;;;;;;4933478;29;20040;-69
2022/03/06 07:31:58;;;;;;;3.70;1.23;;;3.30;67.70;;;;;;4934246;29;20044;-69
2022/03/06 07:34:23;;;;;;;2.47;1.10;;;3.30;67.50;;;;;;4929050;29;20044;-69
2022/03/06 07:36:49;;;;;;;2.53;0.98;;;3.30;67.60;;;;;;4926259;29;20109;-69
2022/03/06 07:39:15;;;;;;;3.10;0.85;;;3.40;67.30;;;;;;4925496;29;20047;-68
2022/03/06 07:41:41;;;;;;;3.78;1.08;;;3.40;67.40;;;;;;4923371;29;20396;-68
2022/03/06 07:44:06;;;;;;;1.80;0.73;;;3.40;67.50;;;;;;4931622;29;20156;-68
2022/03/06 07:46:32;;;;;;;2.05;0.80;;;3.40;67.40;;;;;;4928084;29;20478;-67
2022/03/06 07:48:57;;;;;;;4.57;1.13;;;3.50;67.40;;;;;;4914081;29;20588;-68
2022/03/06 07:51:23;;;;;;;4.00;1.40;;;3.50;67.20;;;;;;4921069;29;20485;-68
2022/03/06 07:53:49;;;;;;;3.00;1.00;;;3.50;67.20;;;;;;4932740;29;20060;-68
2022/03/06 07:56:14;;;;;;;4.82;1.75;;;3.60;67.20;;;;;;4933047;29;20047;-68
2022/03/06 07:58:40;;;;;;;3.08;0.98;;;3.60;67.10;;;;;;4932956;29;20040;-68
2022/03/06 08:01:05;;;;;;;4.80;1.08;;;3.60;67.10;;;;;;4932719;29;20504;-67
2022/03/06 08:03:31;;;;;;;2.72;1.20;;;3.70;66.80;;;;;;4928582;29;20062;-68
2022/03/06 08:05:57;;;;;;;5.20;1.27;;;3.70;66.40;;;;;;4918215;29;20044;-68
2022/03/06 08:08:22;;;;;;;2.30;1.15;;;3.70;66.70;;;;;;4932706;29;20048;-68
2022/03/06 08:10:48;;;;;;;6.43;1.20;;;3.80;66.40;;;;;;4932296;29;20058;-67
2022/03/06 08:13:15;;;;;;;4.05;0.88;;;3.80;66.60;;;;;;4927990;29;20142;-68
2022/03/06 08:15:41;;;;;;;2.08;1.13;;;3.90;66.00;;;;;;4927571;29;20047;-67
2022/03/06 08:18:06;;;;;;;4.03;1.38;;;3.90;66.00;;;;;;4927998;29;20043;-68
2022/03/06 08:20:32;;;;;;;4.63;1.40;;;4.00;66.10;;;;;;4924708;29;20495;-68
2022/03/06 08:22:58;;;;;;;2.80;1.02;;;4.00;66.30;;;;;;4908609;29;20047;-68
2022/03/06 08:25:23;;;;;;;4.07;1.52;;;4.00;66.10;;;;;;4930893;29;20035;-67
2022/03/06 08:27:49;;;;;;;2.78;1.02;;;4.10;66.20;;;;;;4932414;29;20478;-67
2022/03/06 08:30:17;;;;;;;3.72;1.27;;;4.20;66.00;;;;;;4931517;29;20047;-68
2022/03/06 08:32:43;;;;;;;5.05;1.40;;;4.20;66.20;;;;;;4909189;29;20119;-68
2022/03/06 08:35:09;;;;;;;3.13;1.80;;;4.20;65.90;;;;;;4928019;29;20061;-68
2022/03/06 08:37:36;;;;;;;4.40;1.70;;;4.30;65.80;;;;;;4927036;29;20044;-67
2022/03/06 08:40:03;;;;;;;5.63;1.17;;;4.30;65.50;;;;;;4931910;29;20086;-67
2022/03/06 08:42:29;;;;;;;3.13;1.20;;;4.40;64.80;;;;;;4932002;29;20122;-68
2022/03/06 08:44:55;;;;;;;4.00;1.45;;;4.40;65.10;;;;;;4919150;29;20492;-67
2022/03/06 08:47:20;;;;;;;4.65;1.17;;;4.30;65.00;;;;;;4918237;29;20079;-68
2022/03/06 08:49:46;;;;;;;4.82;1.35;;;4.40;65.00;;;;;;4917158;29;20066;-68
2022/03/06 08:52:12;;;;;;;3.00;1.10;;;4.50;64.90;;;;;;4914068;29;20047;-68
2022/03/06 08:54:37;;;;;;;6.18;1.00;;;4.50;64.60;;;;;;4919430;29;20060;-68
2022/03/06 08:57:03;;;;;;;3.00;1.23;;;5.60;72.80;;;;;;4912862;29;20044;-67
2022/03/06 08:59:29;;;;;;;3.20;1.63;;;5.70;67.40;;;;;;4894970;29;20457;-67
2022/03/06 09:01:55;;;;;;;4.18;1.40;;;5.60;64.70;;;;;;4930070;29;20055;-67
2022/03/06 09:04:25;;;;;;;4.32;1.63;;;5.50;63.90;;;;;;4931543;29;20138;-67
2022/03/06 09:06:52;;;;;;;3.97;1.52;;;5.40;63.70;;;;;;4917127;29;20047;-67
2022/03/06 09:09:17;;;;;;;4.95;1.50;;;5.40;63.80;;;;;;4924957;29;20139;-67
2022/03/06 09:11:45;;;;;;;4.10;1.42;;;5.30;63.30;;;;;;4931881;29;20473;-67
2022/03/06 09:14:11;;;;;;;4.25;1.23;;;5.20;62.10;;;;;;4927098;29;20075;-67
2022/03/06 09:16:36;;;;;;;5.13;1.77;;;5.10;62.50;;;;;;4926856;29;20039;-67
2022/03/06 09:19:03;;;;;;;3.85;1.80;;;5.10;62.20;;;;;;4931203;29;20046;-67
2022/03/06 09:21:29;;;;;;;4.03;1.40;;;5.00;62.40;;;;;;4919317;29;20130;-68
2022/03/06 09:23:55;;;;;;;3.08;1.60;;;5.00;61.90;;;;;;4906967;29;20127;-67
2022/03/06 09:26:20;;;;;;;5.55;1.40;;;5.00;62.40;;;;;;4895909;29;20194;-67
2022/03/06 09:28:46;;;;;;;4.00;1.33;;;5.00;62.50;;;;;;4920491;29;20047;-67
2022/03/06 09:31:12;;;;;;;7.47;2.28;;;4.90;62.10;;;;;;4923068;29;20052;-67
2022/03/06 09:33:38;;;;;;;3.40;1.30;;;5.00;62.00;;;;;;4915847;29;20051;-66
2022/03/06 09:36:04;;;;;;;3.75;1.33;;;5.00;61.70;;;;;;4918886;29;20056;-66
2022/03/06 09:38:29;;;;;;;3.13;1.63;;;5.00;61.50;;;;;;4925613;29;20036;-66
2022/03/06 09:40:59;;;;;;;2.63;1.23;;;4.90;61.40;;;;;;4912841;29;20052;-68
2022/03/06 09:43:25;;;;;;;2.95;1.40;;;4.90;61.40;;;;;;4916315;29;20044;-66
2022/03/06 09:45:54;;;;;;;6.00;1.60;;;5.00;62.00;;;;;;4913826;29;20070;-67
2022/03/06 09:48:19;;;;;;;3.72;1.20;;;5.10;62.00;;;;;;4922086;29;20047;-67
2022/03/06 09:50:45;;;;;;;2.85;1.45;;;5.10;61.50;;;;;;4933107;29;20366;-68
2022/03/06 09:53:11;;;;;;;5.32;1.65;;;5.10;61.40;;;;;;4923987;29;20088;-67
2022/03/06 09:55:37;;;;;;;4.90;1.73;;;5.10;61.50;;;;;;4907120;29;20572;-67
2022/03/06 09:58:02;;;;;;;4.32;1.38;;;5.10;61.80;;;;;;4932811;29;20114;-68
2022/03/06 10:00:28;;;;;;;4.85;1.63;;;5.20;62.00;;;;;;4917104;29;20044;-67
2022/03/06 10:02:57;;;;;;;4.53;1.95;;;5.20;61.80;;;;;;4942146;29;20500;-67
2022/03/06 10:05:39;;;;;;;4.80;1.75;;;5.20;61.80;;;;;;4910112;29;20441;-66
2022/03/06 10:08:40;;;;;;;5.22;1.38;;;5.30;61.60;;;;;;4929215;29;20032;-67
2022/03/06 10:11:11;;;;;;;5.38;2.08;;;5.20;61.80;;;;;;4907594;29;20056;-67
2022/03/06 10:13:44;;;;;;;5.20;1.73;;;5.20;61.10;;;;;;4933821;29;20139;-66
2022/03/06 10:16:22;;;;;;;4.00;1.75;;;5.20;61.00;;;;;;4925446;29;20098;-66
2022/03/06 10:18:53;;;;;;;2.90;1.42;;;5.20;60.60;;;;;;4915170;29;20054;-66
2022/03/06 10:21:31;;;;;;;6.03;2.30;;;5.20;60.70;;;;;;4915896;29;20409;-67
2022/03/06 10:23:59;;;;;;;4.60;1.95;;;5.20;61.10;;;;;;4922679;29;20217;-65
2022/03/06 10:26:29;;;;;;;3.60;1.58;;;5.20;61.20;;;;;;4927351;29;20126;-66
2022/03/06 10:29:15;;;;;;;4.10;1.70;;;5.30;61.00;;;;;;4931564;29;20055;-67
2022/03/06 10:31:56;;;;;;;6.60;1.65;;;5.30;60.40;;;;;;4900214;29;20055;-67
2022/03/06 10:34:38;;;;;;;5.03;1.60;;;5.30;60.60;;;;;;4918256;29;20051;-67
2022/03/06 10:37:04;;;;;;;6.28;2.47;;;5.30;60.60;;;;;;4916396;29;20620;-67
2022/03/06 10:39:45;;;;;;;5.15;1.90;;;5.40;60.00;;;;;;4915919;29;20043;-68
2022/03/06 10:42:11;;;;;;;3.30;1.33;;;5.50;59.80;;;;;;4916609;29;20514;-69
2022/03/06 10:44:47;;;;;;;3.03;1.60;;;5.50;59.40;;;;;;4915831;29;20127;-69
2022/03/06 10:47:13;;;;;;;7.35;2.10;;;5.40;59.40;;;;;;4932993;29;20043;-69
2022/03/06 10:49:39;;;;;;;4.03;1.67;;;5.40;60.30;;;;;;4931947;29;20090;-69
2022/03/06 10:52:17;;;;;;;5.60;1.77;;;5.50;60.60;;;;;;4928472;29;20040;-68
2022/03/06 10:54:54;;;;;;;5.47;1.75;;;5.60;59.80;;;;;;4931611;29;20123;-68
2022/03/06 10:57:21;;;;;;;9.70;2.03;;;5.50;60.10;;;;;;4930142;29;20519;-68
2022/03/06 10:59:49;;;;;;;8.07;1.83;;;5.50;60.70;;;;;;4912222;29;20067;-69
2022/03/06 11:02:14;;;;;;;4.00;1.60;;;5.60;61.00;;;;;;4930241;29;20127;-69
2022/03/06 11:04:40;;;;;;;6.55;2.47;;;5.70;61.10;;;;;;4930105;29;20134;-69
2022/03/06 11:07:06;;;;;;;3.85;1.73;;;5.70;60.90;;;;;;4931573;29;20047;-69
2022/03/06 11:09:32;;;;;;;5.63;1.92;;;5.70;60.70;;;;;;4930699;29;20051;-69
2022/03/06 11:11:58;;;;;;;4.65;1.75;;;5.80;60.50;;;;;;4932063;29;20040;-70
2022/03/06 11:14:25;;;;;;;4.43;1.73;;;5.90;60.80;;;;;;4914511;29;20048;-69
2022/03/06 11:16:51;;;;;;;5.25;1.80;;;5.90;60.80;;;;;;4915984;29;20154;-69
2022/03/06 11:19:17;;;;;;;3.25;1.67;;;6.00;61.00;;;;;;4933370;29;20560;-68
2022/03/06 11:21:45;;;;;;;5.35;2.08;;;6.00;60.70;;;;;;4933120;29;20272;-67
2022/03/06 11:24:28;;;;;;;3.33;2.25;;;6.10;60.70;;;;;;4933395;29;20048;-68
2022/03/06 11:27:15;;;;;;;7.03;1.60;;;6.20;60.40;;;;;;4895276;29;20064;-68
2022/03/06 11:30:03;;;;;;;5.68;1.88;;;6.30;60.10;;;;;;4914154;29;20044;-68
2022/03/06 11:32:35;;;;;;;5.10;2.72;;;6.20;59.70;;;;;;4920722;29;20066;-68
2022/03/06 11:35:03;;;;;;;5.28;2.00;;;6.20;60.50;;;;;;4912401;29;20075;-68
2022/03/06 11:37:43;;;;;;;4.22;1.40;;;6.30;60.60;;;;;;4925816;29;20397;-68
2022/03/06 11:40:35;;;;;;;5.55;1.83;;;6.40;60.70;;;;;;4908496;29;20464;-68
2022/03/06 11:43:00;;;;;;;5.85;1.85;;;6.50;58.80;;;;;;4908548;29;20409;-69
2022/03/06 11:45:52;;;;;;;7.97;2.20;;;6.40;59.30;;;;;;4929153;29;20040;-69
2022/03/06 11:48:23;;;;;;;4.82;1.65;;;6.70;58.40;;;;;;4937662;29;20044;-68
2022/03/06 11:51:14;;;;;;;4.60;1.92;;;6.60;58.30;;;;;;4935234;29;20625;-67
2022/03/06 11:54:09;;;;;;;4.45;2.00;;;6.60;58.20;;;;;;4910856;29;20119;-68
2022/03/06 11:56:35;;;;;;;5.90;1.75;;;6.60;58.00;;;;;;4924220;29;20070;-68
2022/03/06 11:59:04;;;;;;;4.35;1.40;;;6.60;58.20;;;;;;4930002;29;20055;-67
2022/03/06 12:01:39;;;;;;;3.97;1.52;;;6.60;58.10;;;;;;4920689;29;20044;-66
2022/03/06 12:04:21;;;;;;;8.75;1.70;;;6.60;58.20;;;;;;4928780;29;20179;-68
2022/03/06 12:06:53;;;;;;;2.85;1.30;;;6.50;58.70;;;;;;4920548;29;20539;-68
2022/03/06 12:09:21;;;;;;;4.28;1.15;;;6.60;58.90;;;;;;4931204;29;20402;-68
2022/03/06 12:11:49;;;;;;;2.08;1.10;;;6.60;59.20;;;;;;4922180;29;20131;-68
2022/03/06 12:14:20;;;;;;;7.88;2.47;;;6.70;59.50;;;;;;4931173;29;20312;-68
2022/03/06 12:17:11;;;;;;;3.85;1.63;;;6.80;59.40;;;;;;4930702;29;20505;-68
2022/03/06 12:19:43;;;;;;;3.95;1.85;;;7.00;57.40;;;;;;4906014;29;20112;-68
2022/03/06 12:22:33;;;;;;;3.63;1.67;;;6.90;57.60;;;;;;4932781;29;20055;-68
2022/03/06 12:25:10;;;;;;;2.78;1.52;;;6.80;58.10;;;;;;4915061;29;20491;-68
2022/03/06 12:27:40;;;;;;;6.28;1.65;;;6.90;58.30;;;;;;4932190;29;20047;-68
2022/03/06 12:30:08;;;;;;;6.45;1.73;;;6.90;58.10;;;;;;4914862;29;20408;-68
2022/03/06 12:32:39;;;;;;;4.70;1.75;;;6.90;57.90;;;;;;4932460;29;20044;-67
2022/03/06 12:35:13;;;;;;;5.80;1.80;;;6.90;58.30;;;;;;4932450;29;20048;-69
2022/03/06 12:38:00;;;;;;;3.60;1.27;;;6.90;58.70;;;;;;4931982;29;20047;-68
2022/03/06 12:40:31;;;;;;;4.50;1.77;;;7.10;57.40;;;;;;4930896;29;20107;-68
2022/03/06 12:43:05;;;;;;;6.07;1.90;;;6.90;58.30;;;;;;4931502;29;20055;-68
2022/03/06 12:45:32;;;;;;;3.72;1.67;;;7.00;58.30;;;;;;4931596;29;20126;-68
2022/03/06 12:47:59;;;;;;;3.80;1.98;;;7.10;58.00;;;;;;4931530;29;20043;-69
2022/03/06 12:50:25;;;;;;;6.53;2.03;;;7.10;57.90;;;;;;4928809;29;20159;-68
2022/03/06 12:52:54;;;;;;;6.25;2.00;;;7.10;58.00;;;;;;4931436;29;20088;-67
2022/03/06 12:55:20;;;;;;;6.90;1.98;;;7.30;57.80;;;;;;4914396;29;20424;-68
2022/03/06 12:57:54;;;;;;;4.65;1.60;;;7.20;57.60;;;;;;4931029;29;20126;-70